sensor_id;sensor_type;location;lat;lon;timestamp;pressure;altitude;pressure_sealevel;temperature;humidity
61010;BME280;46897;55.340;86.082;2022-12-10T00:01:57;101603.00;;;-15.86;71.92
61010;BME280;46897;55.340;86.082;2022-12-10T00:04:27;101450.25;;;-16.64;71.87
61010;BME280;46897;55.340;86.082;2022-12-10T00:06:56;101550.97;;;-16.12;71.89
61010;BME280;46897;55.340;86.082;2022-12-10T00:09:27;101587.03;;;-15.85;71.65
61010;BME280;46897;55.340;86.082;2022-12-10T00:11:56;101583.72;;;-15.84;71.61
61010;BME280;46897;55.340;86.082;2022-12-10T00:14:25;101582.19;;;-15.82;71.67
61010;BME280;46897;55.340;86.082;2022-12-10T00:16:55;101550.47;;;-15.97;71.77
61010;BME280;46897;55.340;86.082;2022-12-10T00:19:24;101576.13;;;-15.74;71.79
61010;BME280;46897;55.340;86.082;2022-12-10T00:21:53;101546.16;;;-15.88;72.18
61010;BME280;46897;55.340;86.082;2022-12-10T00:24:22;101571.00;;;-15.64;71.87
61010;BME280;46897;55.340;86.082;2022-12-10T00:26:53;101540.69;;;-15.82;71.66
61010;BME280;46897;55.340;86.082;2022-12-10T00:29:22;101524.56;;;-15.93;71.57
61010;BME280;46897;55.340;86.082;2022-12-10T00:31:52;101571.50;;;-15.57;71.84
61010;BME280;46897;55.340;86.082;2022-12-10T00:34:21;101507.22;;;-15.89;71.75
61010;BME280;46897;55.340;86.082;2022-12-10T00:36:50;101312.69;;;-17.04;71.31
61010;BME280;46897;55.340;86.082;2022-12-10T00:39:20;101534.75;;;-15.83;71.07
61010;BME280;46897;55.340;86.082;2022-12-10T00:41:50;101271.38;;;-17.34;71.14
61010;BME280;46897;55.340;86.082;2022-12-10T00:44:20;101423.66;;;-16.38;71.62
61010;BME280;46897;55.340;86.082;2022-12-10T00:46:50;101462.06;;;-16.13;71.56
61010;BME280;46897;55.340;86.082;2022-12-10T00:49:19;101327.72;;;-17.06;71.65
61010;BME280;46897;55.340;86.082;2022-12-10T00:51:50;101557.78;;;-15.49;71.75
61010;BME280;46897;55.340;86.082;2022-12-10T00:54:19;101402.59;;;-16.27;71.44
61010;BME280;46897;55.340;86.082;2022-12-10T00:56:49;101408.56;;;-16.27;71.33
61010;BME280;46897;55.340;86.082;2022-12-10T00:59:20;101361.44;;;-16.66;71.09
61010;BME280;46897;55.340;86.082;2022-12-10T01:01:49;101600.28;;;-15.36;71.63
61010;BME280;46897;55.340;86.082;2022-12-10T01:04:18;101523.81;;;-15.72;71.44
61010;BME280;46897;55.340;86.082;2022-12-10T01:06:49;101524.66;;;-15.51;71.47
61010;BME280;46897;55.340;86.082;2022-12-10T01:09:21;101421.88;;;-16.19;71.33
61010;BME280;46897;55.340;86.082;2022-12-10T01:11:51;101343.56;;;-16.47;71.26
61010;BME280;46897;55.340;86.082;2022-12-10T01:14:24;101543.38;;;-15.28;71.37
61010;BME280;46897;55.340;86.082;2022-12-10T01:16:54;101513.84;;;-15.48;71.26
61010;BME280;46897;55.340;86.082;2022-12-10T01:19:25;101391.94;;;-16.13;71.29
61010;BME280;46897;55.340;86.082;2022-12-10T01:21:55;101441.47;;;-15.86;71.22
61010;BME280;46897;55.340;86.082;2022-12-10T01:24:26;101535.16;;;-15.26;71.70
61010;BME280;46897;55.340;86.082;2022-12-10T01:26:56;101552.28;;;-15.23;71.34
61010;BME280;46897;55.340;86.082;2022-12-10T01:29:27;101366.88;;;-16.51;71.30
61010;BME280;46897;55.340;86.082;2022-12-10T01:31:57;101509.31;;;-15.52;71.16
61010;BME280;46897;55.340;86.082;2022-12-10T01:34:27;101565.34;;;-15.18;71.07
61010;BME280;46897;55.340;86.082;2022-12-10T01:36:56;101409.06;;;-16.10;71.21
61010;BME280;46897;55.340;86.082;2022-12-10T01:39:25;101401.44;;;-16.20;71.21
61010;BME280;46897;55.340;86.082;2022-12-10T01:41:57;101477.91;;;-15.85;71.07
61010;BME280;46897;55.340;86.082;2022-12-10T01:45:00;101566.59;;;-15.13;71.33
61010;BME280;46897;55.340;86.082;2022-12-10T01:50:34;101583.88;;;-15.09;71.27
61010;BME280;46897;55.340;86.082;2022-12-10T01:53:05;101571.16;;;-15.09;71.17
61010;BME280;46897;55.340;86.082;2022-12-10T01:55:51;101574.72;;;-15.07;71.23
61010;BME280;46897;55.340;86.082;2022-12-10T01:58:21;101580.66;;;-15.07;71.35
61010;BME280;46897;55.340;86.082;2022-12-10T02:01:09;101563.81;;;-15.06;71.46
61010;BME280;46897;55.340;86.082;2022-12-10T02:03:47;101566.34;;;-15.06;71.39
61010;BME280;46897;55.340;86.082;2022-12-10T02:06:31;101590.97;;;-15.05;71.07
61010;BME280;46897;55.340;86.082;2022-12-10T02:09:10;101324.41;;;-16.43;70.83
61010;BME280;46897;55.340;86.082;2022-12-10T02:11:44;101453.84;;;-15.68;70.98
61010;BME280;46897;55.340;86.082;2022-12-10T02:14:18;101346.28;;;-16.13;71.23
61010;BME280;46897;55.340;86.082;2022-12-10T02:16:55;101421.69;;;-15.90;71.32
61010;BME280;46897;55.340;86.082;2022-12-10T02:19:40;101520.09;;;-15.12;71.24
61010;BME280;46897;55.340;86.082;2022-12-10T02:22:13;101345.31;;;-16.25;71.05
61010;BME280;46897;55.340;86.082;2022-12-10T02:24:44;101571.13;;;-14.89;71.45
61010;BME280;46897;55.340;86.082;2022-12-10T02:27:21;101562.78;;;-15.08;71.27
61010;BME280;46897;55.340;86.082;2022-12-10T02:29:56;101578.34;;;-14.83;71.46
61010;BME280;46897;55.340;86.082;2022-12-10T02:32:31;101573.34;;;-14.81;71.10
61010;BME280;46897;55.340;86.082;2022-12-10T02:35:05;101456.38;;;-15.68;70.97
61010;BME280;46897;55.340;86.082;2022-12-10T02:37:38;101456.47;;;-15.46;71.08
61010;BME280;46897;55.340;86.082;2022-12-10T02:40:13;101362.41;;;-16.12;71.33
61010;BME280;46897;55.340;86.082;2022-12-10T02:42:49;101516.31;;;-15.17;70.85
61010;BME280;46897;55.340;86.082;2022-12-10T02:45:22;101500.81;;;-15.20;70.84
61010;BME280;46897;55.340;86.082;2022-12-10T02:47:56;101403.19;;;-15.89;70.84
61010;BME280;46897;55.340;86.082;2022-12-10T02:50:26;101397.84;;;-15.81;70.96
61010;BME280;46897;55.340;86.082;2022-12-10T02:52:56;101534.88;;;-14.86;71.39
61010;BME280;46897;55.340;86.082;2022-12-10T02:55:25;101541.31;;;-14.79;71.03
61010;BME280;46897;55.340;86.082;2022-12-10T02:58:03;101463.72;;;-15.18;70.88
61010;BME280;46897;55.340;86.082;2022-12-10T03:00:43;101467.06;;;-15.19;71.02
61010;BME280;46897;55.340;86.082;2022-12-10T03:03:32;101590.72;;;-14.43;70.85
61010;BME280;46897;55.340;86.082;2022-12-10T03:06:08;101578.63;;;-14.58;70.99
61010;BME280;46897;55.340;86.082;2022-12-10T03:08:46;101360.88;;;-15.78;70.85
61010;BME280;46897;55.340;86.082;2022-12-10T03:11:19;101592.16;;;-14.25;71.27
61010;BME280;46897;55.340;86.082;2022-12-10T03:13:54;101527.41;;;-14.51;71.10
61010;BME280;46897;55.340;86.082;2022-12-10T03:16:35;101431.38;;;-14.99;71.34
61010;BME280;46897;55.340;86.082;2022-12-10T03:19:07;101481.63;;;-14.62;71.14
61010;BME280;46897;55.340;86.082;2022-12-10T03:21:39;101594.69;;;-14.03;71.22
61010;BME280;46897;55.340;86.082;2022-12-10T03:24:10;101585.63;;;-13.99;71.06
61010;BME280;46897;55.340;86.082;2022-12-10T03:26:40;101527.22;;;-14.20;71.22
61010;BME280;46897;55.340;86.082;2022-12-10T03:29:14;101518.84;;;-14.19;71.27
61010;BME280;46897;55.340;86.082;2022-12-10T03:31:46;101560.03;;;-14.01;71.33
61010;BME280;46897;55.340;86.082;2022-12-10T03:34:16;101601.28;;;-13.83;70.83
61010;BME280;46897;55.340;86.082;2022-12-10T03:36:45;101584.69;;;-13.78;70.88
61010;BME280;46897;55.340;86.082;2022-12-10T03:39:17;101574.75;;;-13.75;70.93
61010;BME280;46897;55.340;86.082;2022-12-10T03:41:47;101512.50;;;-14.24;70.78
61010;BME280;46897;55.340;86.082;2022-12-10T03:44:27;101552.03;;;-13.83;70.76
61010;BME280;46897;55.340;86.082;2022-12-10T03:46:59;101550.25;;;-13.84;70.70
61010;BME280;46897;55.340;86.082;2022-12-10T03:49:29;101521.16;;;-13.88;70.40
61010;BME280;46897;55.340;86.082;2022-12-10T03:51:58;101509.28;;;-13.88;70.76
61010;BME280;46897;55.340;86.082;2022-12-10T03:54:29;101347.06;;;-14.83;70.71
61010;BME280;46897;55.340;86.082;2022-12-10T03:56:58;101547.41;;;-13.66;70.82
61010;BME280;46897;55.340;86.082;2022-12-10T03:59:27;101536.00;;;-13.82;70.31
61010;BME280;46897;55.340;86.082;2022-12-10T04:01:58;101438.25;;;-14.30;70.11
61010;BME280;46897;55.340;86.082;2022-12-10T04:04:37;101550.63;;;-13.68;70.72
61010;BME280;46897;55.340;86.082;2022-12-10T04:07:06;101522.03;;;-13.88;70.72
61010;BME280;46897;55.340;86.082;2022-12-10T04:09:36;101396.34;;;-14.81;70.45
61010;BME280;46897;55.340;86.082;2022-12-10T04:12:06;101495.84;;;-14.09;69.70
61010;BME280;46897;55.340;86.082;2022-12-10T04:14:35;101555.03;;;-13.77;70.29
61010;BME280;46897;55.340;86.082;2022-12-10T04:17:23;101588.25;;;-13.76;70.25
61010;BME280;46897;55.340;86.082;2022-12-10T04:19:52;101415.19;;;-14.67;70.13
61010;BME280;46897;55.340;86.082;2022-12-10T04:22:21;101474.47;;;-14.22;70.47
61010;BME280;46897;55.340;86.082;2022-12-10T04:25:10;101427.69;;;-14.47;70.47
61010;BME280;46897;55.340;86.082;2022-12-10T04:27:57;101559.94;;;-13.69;70.50
61010;BME280;46897;55.340;86.082;2022-12-10T04:30:30;101513.94;;;-13.94;70.52
61010;BME280;46897;55.340;86.082;2022-12-10T11:30:58;101521.72;;;-13.69;72.08
61010;BME280;46897;55.340;86.082;2022-12-10T11:33:38;101544.69;;;-13.57;71.74
61010;BME280;46897;55.340;86.082;2022-12-10T11:36:25;101507.06;;;-13.83;71.72
61010;BME280;46897;55.340;86.082;2022-12-10T11:39:06;101503.34;;;-13.76;71.63
61010;BME280;46897;55.340;86.082;2022-12-10T11:41:43;101555.19;;;-13.52;72.17
61010;BME280;46897;55.340;86.082;2022-12-10T11:44:23;101551.09;;;-13.50;72.07
61010;BME280;46897;55.340;86.082;2022-12-10T11:47:18;101551.00;;;-13.52;72.16
61010;BME280;46897;55.340;86.082;2022-12-10T11:50:01;101549.34;;;-13.51;72.03
61010;BME280;46897;55.340;86.082;2022-12-10T11:52:40;101551.09;;;-13.50;71.76
61010;BME280;46897;55.340;86.082;2022-12-10T11:55:23;101547.47;;;-13.54;72.02
61010;BME280;46897;55.340;86.082;2022-12-10T11:58:09;101559.53;;;-13.51;71.79
61010;BME280;46897;55.340;86.082;2022-12-10T12:00:49;101310.72;;;-15.04;71.96
61010;BME280;46897;55.340;86.082;2022-12-10T12:09:33;101559.72;;;-13.60;71.58
61010;BME280;46897;55.340;86.082;2022-12-10T12:12:14;101379.59;;;-14.67;71.56
61010;BME280;46897;55.340;86.082;2022-12-10T12:14:50;101484.34;;;-14.15;71.39
61010;BME280;46897;55.340;86.082;2022-12-10T12:17:24;101434.28;;;-14.38;72.11
61010;BME280;46897;55.340;86.082;2022-12-10T12:19:59;101570.13;;;-13.57;71.74
61010;BME280;46897;55.340;86.082;2022-12-10T12:22:34;101549.75;;;-13.69;72.18
61010;BME280;46897;55.340;86.082;2022-12-10T12:25:06;101589.41;;;-13.49;71.96
61010;BME280;46897;55.340;86.082;2022-12-10T12:27:40;101545.09;;;-13.62;71.87
61010;BME280;46897;55.340;86.082;2022-12-10T12:30:14;101353.28;;;-14.68;72.38
61010;BME280;46897;55.340;86.082;2022-12-10T12:32:52;101571.41;;;-13.40;72.22
61010;BME280;46897;55.340;86.082;2022-12-10T12:35:32;101520.94;;;-13.68;72.55
61010;BME280;46897;55.340;86.082;2022-12-10T12:38:19;101573.94;;;-13.40;72.53
61010;BME280;46897;55.340;86.082;2022-12-10T12:40:53;101553.44;;;-13.53;72.27
61010;BME280;46897;55.340;86.082;2022-12-10T12:43:31;101573.03;;;-13.40;72.32
61010;BME280;46897;55.340;86.082;2022-12-10T12:46:08;101503.22;;;-13.78;72.65
61010;BME280;46897;55.340;86.082;2022-12-10T12:48:46;101566.63;;;-13.35;72.94
61010;BME280;46897;55.340;86.082;2022-12-10T12:51:22;101544.13;;;-13.53;72.21
61010;BME280;46897;55.340;86.082;2022-12-10T12:53:53;101569.41;;;-13.32;72.83
61010;BME280;46897;55.340;86.082;2022-12-10T12:56:32;101461.34;;;-13.93;73.00
61010;BME280;46897;55.340;86.082;2022-12-10T12:59:17;101570.19;;;-13.33;73.01
61010;BME280;46897;55.340;86.082;2022-12-10T13:01:52;101503.66;;;-13.72;72.84
61010;BME280;46897;55.340;86.082;2022-12-10T13:04:23;101491.03;;;-13.82;73.14
61010;BME280;46897;55.340;86.082;2022-12-10T13:07:32;101532.25;;;-13.52;72.90
61010;BME280;46897;55.340;86.082;2022-12-10T13:10:17;101553.66;;;-13.38;72.69
61010;BME280;46897;55.340;86.082;2022-12-10T13:12:48;101581.25;;;-13.33;72.43
61010;BME280;46897;55.340;86.082;2022-12-10T13:15:20;101559.78;;;-13.36;72.90
61010;BME280;46897;55.340;86.082;2022-12-10T13:18:20;101570.59;;;-13.27;72.73
61010;BME280;46897;55.340;86.082;2022-12-10T13:20:52;101486.28;;;-13.66;72.50
61010;BME280;46897;55.340;86.082;2022-12-10T13:23:50;101562.50;;;-13.21;72.90
61010;BME280;46897;55.340;86.082;2022-12-10T13:26:24;101527.66;;;-13.34;72.91
61010;BME280;46897;55.340;86.082;2022-12-10T13:28:55;101546.66;;;-13.29;73.14
61010;BME280;46897;55.340;86.082;2022-12-10T13:31:36;101567.94;;;-13.17;73.39
61010;BME280;46897;55.340;86.082;2022-12-10T13:34:22;101549.75;;;-13.21;72.90
61010;BME280;46897;55.340;86.082;2022-12-10T13:37:29;101546.00;;;-13.27;72.78
61010;BME280;46897;55.340;86.082;2022-12-10T13:40:14;101433.66;;;-14.00;72.63
61010;BME280;46897;55.340;86.082;2022-12-10T13:42:44;101513.44;;;-13.54;72.74
61010;BME280;46897;55.340;86.082;2022-12-10T13:45:37;101588.97;;;-13.19;72.62
61010;BME280;46897;55.340;86.082;2022-12-10T13:48:29;101533.06;;;-13.53;73.02
61010;BME280;46897;55.340;86.082;2022-12-10T13:51:20;101451.19;;;-13.93;72.75
61010;BME280;46897;55.340;86.082;2022-12-10T13:54:06;101574.59;;;-13.31;72.90
61010;BME280;46897;55.340;86.082;2022-12-10T13:56:52;101504.31;;;-13.86;73.31
61010;BME280;46897;55.340;86.082;2022-12-10T13:59:31;101535.28;;;-13.46;72.88
61010;BME280;46897;55.340;86.082;2022-12-10T14:02:27;101528.50;;;-13.57;72.71
61010;BME280;46897;55.340;86.082;2022-12-10T14:05:19;101520.31;;;-13.53;72.69
61010;BME280;46897;55.340;86.082;2022-12-10T14:07:52;101475.53;;;-13.85;73.38
61010;BME280;46897;55.340;86.082;2022-12-10T14:10:27;101614.72;;;-13.16;73.19
61010;BME280;46897;55.340;86.082;2022-12-10T14:12:59;101586.44;;;-13.19;73.33
61010;BME280;46897;55.340;86.082;2022-12-10T14:15:31;101474.25;;;-14.14;72.95
61010;BME280;46897;55.340;86.082;2022-12-10T14:18:09;101409.06;;;-14.23;72.87
61010;BME280;46897;55.340;86.082;2022-12-10T14:20:44;101414.13;;;-14.35;73.01
61010;BME280;46897;55.340;86.082;2022-12-10T14:23:23;101491.72;;;-13.84;73.24
61010;BME280;46897;55.340;86.082;2022-12-10T14:26:12;101597.84;;;-13.26;72.46
61010;BME280;46897;55.340;86.082;2022-12-10T14:28:45;101430.66;;;-14.18;72.66
61010;BME280;46897;55.340;86.082;2022-12-10T14:31:17;101528.28;;;-13.60;72.61
61010;BME280;46897;55.340;86.082;2022-12-10T14:33:50;101561.53;;;-13.47;73.04
61010;BME280;46897;55.340;86.082;2022-12-10T14:36:27;101580.91;;;-13.26;72.83
61010;BME280;46897;55.340;86.082;2022-12-10T14:38:57;101444.53;;;-14.03;72.96
61010;BME280;46897;55.340;86.082;2022-12-10T14:41:29;101482.84;;;-13.78;73.27
61010;BME280;46897;55.340;86.082;2022-12-10T14:44:12;101457.47;;;-14.12;72.83
61010;BME280;46897;55.340;86.082;2022-12-10T14:46:43;101490.19;;;-13.71;72.92
61010;BME280;46897;55.340;86.082;2022-12-10T14:49:16;101440.38;;;-14.25;72.63
61010;BME280;46897;55.340;86.082;2022-12-10T14:51:45;101493.84;;;-13.79;72.74
61010;BME280;46897;55.340;86.082;2022-12-10T14:54:27;101429.00;;;-14.18;72.98
61010;BME280;46897;55.340;86.082;2022-12-10T14:57:00;101600.41;;;-13.14;73.13
61010;BME280;46897;55.340;86.082;2022-12-10T14:59:36;101557.53;;;-13.43;72.66
61010;BME280;46897;55.340;86.082;2022-12-10T15:02:15;101438.28;;;-14.18;73.05
61010;BME280;46897;55.340;86.082;2022-12-10T15:04:47;101554.19;;;-13.54;73.21
61010;BME280;46897;55.340;86.082;2022-12-10T15:07:19;101488.03;;;-14.00;73.03
61010;BME280;46897;55.340;86.082;2022-12-10T15:09:50;101599.88;;;-13.34;73.18
61010;BME280;46897;55.340;86.082;2022-12-10T15:12:32;101531.09;;;-13.79;73.35
61010;BME280;46897;55.340;86.082;2022-12-10T15:15:14;101605.72;;;-13.35;73.38
61010;BME280;46897;55.340;86.082;2022-12-10T15:17:55;101608.06;;;-13.38;73.00
61010;BME280;46897;55.340;86.082;2022-12-10T15:20:27;101451.31;;;-14.26;72.79
61010;BME280;46897;55.340;86.082;2022-12-10T15:23:19;101568.25;;;-13.93;72.85
61010;BME280;46897;55.340;86.082;2022-12-10T15:26:02;101570.31;;;-13.66;72.96
61010;BME280;46897;55.340;86.082;2022-12-10T15:28:34;101613.44;;;-13.57;72.84
61010;BME280;46897;55.340;86.082;2022-12-10T15:31:13;101605.50;;;-13.50;72.97
61010;BME280;46897;55.340;86.082;2022-12-10T15:33:52;101452.16;;;-14.37;72.77
61010;BME280;46897;55.340;86.082;2022-12-10T15:36:28;101538.28;;;-13.86;72.33
61010;BME280;46897;55.340;86.082;2022-12-10T15:39:01;101605.50;;;-13.50;72.81
61010;BME280;46897;55.340;86.082;2022-12-10T15:41:39;101610.47;;;-13.51;73.30
61010;BME280;46897;55.340;86.082;2022-12-10T15:44:18;101535.06;;;-13.95;72.72
61010;BME280;46897;55.340;86.082;2022-12-10T15:46:59;101604.22;;;-13.67;73.21
61010;BME280;46897;55.340;86.082;2022-12-10T15:49:29;101632.16;;;-13.56;72.58
61010;BME280;46897;55.340;86.082;2022-12-10T15:51:58;101609.53;;;-13.63;72.57
61010;BME280;46897;55.340;86.082;2022-12-10T15:54:32;101568.09;;;-14.07;72.83
61010;BME280;46897;55.340;86.082;2022-12-10T15:57:06;101571.53;;;-14.06;72.52
61010;BME280;46897;55.340;86.082;2022-12-10T15:59:40;101596.22;;;-14.05;72.78
61010;BME280;46897;55.340;86.082;2022-12-10T16:02:25;101479.31;;;-14.81;72.75
61010;BME280;46897;55.340;86.082;2022-12-10T16:04:55;101514.38;;;-14.77;72.95
61010;BME280;46897;55.340;86.082;2022-12-10T16:07:24;101530.41;;;-14.78;72.97
61010;BME280;46897;55.340;86.082;2022-12-10T16:09:54;101466.75;;;-15.12;72.19
61010;BME280;46897;55.340;86.082;2022-12-10T16:12:24;101531.19;;;-14.90;72.47
61010;BME280;46897;55.340;86.082;2022-12-10T16:14:55;101645.06;;;-14.31;72.28
61010;BME280;46897;55.340;86.082;2022-12-10T16:17:29;101647.66;;;-14.41;72.37
61010;BME280;46897;55.340;86.082;2022-12-10T16:19:59;101632.19;;;-14.77;72.62
61010;BME280;46897;55.340;86.082;2022-12-10T16:22:28;101468.69;;;-15.63;72.44
61010;BME280;46897;55.340;86.082;2022-12-10T16:24:58;101620.41;;;-14.87;72.67
61010;BME280;46897;55.340;86.082;2022-12-10T16:27:27;101578.03;;;-15.18;72.46
61010;BME280;46897;55.340;86.082;2022-12-10T16:30:00;101482.09;;;-15.75;72.57
61010;BME280;46897;55.340;86.082;2022-12-10T16:32:32;101665.13;;;-14.78;72.79
61010;BME280;46897;55.340;86.082;2022-12-10T16:35:02;101609.53;;;-15.06;72.77
61010;BME280;46897;55.340;86.082;2022-12-10T16:37:32;101490.59;;;-15.85;72.50
61010;BME280;46897;55.340;86.082;2022-12-10T16:40:01;101658.53;;;-14.87;72.46
61010;BME280;46897;55.340;86.082;2022-12-10T16:42:31;101603.72;;;-15.26;72.74
61010;BME280;46897;55.340;86.082;2022-12-10T16:45:01;101621.00;;;-15.21;72.69
61010;BME280;46897;55.340;86.082;2022-12-10T16:47:36;101667.94;;;-14.96;72.42
61010;BME280;46897;55.340;86.082;2022-12-10T16:50:06;101689.69;;;-14.99;72.29
61010;BME280;46897;55.340;86.082;2022-12-10T16:52:36;101664.13;;;-15.01;72.47
61010;BME280;46897;55.340;86.082;2022-12-10T16:55:06;101479.06;;;-16.12;72.49
61010;BME280;46897;55.340;86.082;2022-12-10T16:57:35;101512.16;;;-16.21;72.40
61010;BME280;46897;55.340;86.082;2022-12-10T17:00:12;101568.09;;;-15.78;72.38
61010;BME280;46897;55.340;86.082;2022-12-10T17:02:43;101478.44;;;-16.20;72.47
61010;BME280;46897;55.340;86.082;2022-12-10T17:05:15;101526.38;;;-16.02;72.43
61010;BME280;46897;55.340;86.082;2022-12-10T17:07:45;101601.31;;;-15.65;72.36
61010;BME280;46897;55.340;86.082;2022-12-10T17:10:14;101573.19;;;-15.89;72.41
61010;BME280;46897;55.340;86.082;2022-12-10T17:12:43;101485.66;;;-16.35;72.34
61010;BME280;46897;55.340;86.082;2022-12-10T17:15:13;101672.03;;;-15.29;72.58
61010;BME280;46897;55.340;86.082;2022-12-10T17:17:45;101669.50;;;-15.29;72.65
61010;BME280;46897;55.340;86.082;2022-12-10T17:20:18;101560.75;;;-15.96;72.49
61010;BME280;46897;55.340;86.082;2022-12-10T17:22:48;101507.69;;;-16.34;72.27
61010;BME280;46897;55.340;86.082;2022-12-10T17:25:17;101683.31;;;-15.35;72.29
61010;BME280;46897;55.340;86.082;2022-12-10T17:27:46;101655.00;;;-15.60;72.50
61010;BME280;46897;55.340;86.082;2022-12-10T17:30:16;101441.91;;;-16.84;72.03
61010;BME280;46897;55.340;86.082;2022-12-10T17:32:47;101627.25;;;-15.79;72.61
61010;BME280;46897;55.340;86.082;2022-12-10T17:35:16;101696.28;;;-15.42;72.63
61010;BME280;46897;55.340;86.082;2022-12-10T17:37:45;101487.47;;;-16.73;72.94
61010;BME280;46897;55.340;86.082;2022-12-10T17:40:21;101592.00;;;-16.26;72.33
61010;BME280;46897;55.340;86.082;2022-12-10T17:42:50;101546.38;;;-16.26;72.30
61010;BME280;46897;55.340;86.082;2022-12-10T17:45:20;101540.78;;;-16.32;72.25
61010;BME280;46897;55.340;86.082;2022-12-10T17:47:50;101495.88;;;-16.64;72.66
61010;BME280;46897;55.340;86.082;2022-12-10T17:50:24;101588.50;;;-16.18;72.69
61010;BME280;46897;55.340;86.082;2022-12-10T17:52:59;101709.09;;;-15.51;72.70
61010;BME280;46897;55.340;86.082;2022-12-10T17:55:28;101593.06;;;-16.24;72.67
61010;BME280;46897;55.340;86.082;2022-12-10T17:57:57;101649.31;;;-15.89;72.53
61010;BME280;46897;55.340;86.082;2022-12-10T18:00:29;101545.41;;;-16.57;72.20
61010;BME280;46897;55.340;86.082;2022-12-10T18:03:00;101687.63;;;-15.86;72.26
61010;BME280;46897;55.340;86.082;2022-12-10T18:05:30;101708.09;;;-15.53;72.54
61010;BME280;46897;55.340;86.082;2022-12-10T18:07:59;101702.75;;;-15.56;72.77
61010;BME280;46897;55.340;86.082;2022-12-10T18:10:32;101660.84;;;-15.92;72.55
61010;BME280;46897;55.340;86.082;2022-12-10T18:13:02;101725.06;;;-15.63;72.52
61010;BME280;46897;55.340;86.082;2022-12-10T18:15:32;101716.94;;;-15.69;72.54
61010;BME280;46897;55.340;86.082;2022-12-10T18:18:03;101622.63;;;-16.44;71.99
61010;BME280;46897;55.340;86.082;2022-12-10T18:20:35;101655.97;;;-16.10;72.45
61010;BME280;46897;55.340;86.082;2022-12-10T18:23:07;101581.25;;;-16.63;72.53
61010;BME280;46897;55.340;86.082;2022-12-10T18:25:37;101518.88;;;-17.21;72.84
61010;BME280;46897;55.340;86.082;2022-12-10T18:28:40;101735.22;;;-15.83;72.70
61010;BME280;46897;55.340;86.082;2022-12-10T18:31:08;101575.63;;;-16.79;72.64
61010;BME280;46897;55.340;86.082;2022-12-10T18:33:45;101673.78;;;-16.29;72.79
61010;BME280;46897;55.340;86.082;2022-12-10T18:36:17;101696.47;;;-16.30;72.41
61010;BME280;46897;55.340;86.082;2022-12-10T18:38:51;101623.06;;;-16.68;72.86
61010;BME280;46897;55.340;86.082;2022-12-10T18:41:21;101678.66;;;-16.51;72.64
61010;BME280;46897;55.340;86.082;2022-12-10T18:43:52;101635.56;;;-16.80;72.33
61010;BME280;46897;55.340;86.082;2022-12-10T18:46:23;101678.47;;;-16.33;72.57
61010;BME280;46897;55.340;86.082;2022-12-10T18:48:54;101594.13;;;-17.10;72.85
61010;BME280;46897;55.340;86.082;2022-12-10T18:51:23;101672.06;;;-16.49;72.98
61010;BME280;46897;55.340;86.082;2022-12-10T18:53:53;101561.75;;;-17.04;72.71
61010;BME280;46897;55.340;86.082;2022-12-10T18:56:24;101567.09;;;-17.19;72.71
61010;BME280;46897;55.340;86.082;2022-12-10T18:58:54;101743.63;;;-16.03;72.82
61010;BME280;46897;55.340;86.082;2022-12-10T19:01:23;101710.19;;;-16.28;72.63
61010;BME280;46897;55.340;86.082;2022-12-10T19:03:56;101634.06;;;-16.78;72.36
61010;BME280;46897;55.340;86.082;2022-12-10T19:06:27;101661.47;;;-16.64;72.65
61010;BME280;46897;55.340;86.082;2022-12-10T19:08:57;101598.00;;;-16.94;72.75
61010;BME280;46897;55.340;86.082;2022-12-10T19:11:44;101768.75;;;-16.06;73.07
61010;BME280;46897;55.340;86.082;2022-12-10T19:14:15;101655.88;;;-16.70;72.79
61010;BME280;46897;55.340;86.082;2022-12-10T19:16:46;101715.97;;;-16.39;72.53
61010;BME280;46897;55.340;86.082;2022-12-10T19:19:17;101748.09;;;-16.30;72.81
61010;BME280;46897;55.340;86.082;2022-12-10T19:21:46;101574.16;;;-17.07;72.65
61010;BME280;46897;55.340;86.082;2022-12-10T19:24:16;101738.34;;;-16.25;73.07
61010;BME280;46897;55.340;86.082;2022-12-10T19:26:45;101732.72;;;-16.12;72.83
61010;BME280;46897;55.340;86.082;2022-12-10T19:29:17;101637.38;;;-16.69;72.58
61010;BME280;46897;55.340;86.082;2022-12-10T19:31:47;101712.91;;;-16.16;72.66
61010;BME280;46897;55.340;86.082;2022-12-10T19:34:19;101775.06;;;-15.82;72.93
61010;BME280;46897;55.340;86.082;2022-12-10T19:36:48;101556.25;;;-17.18;72.66
61010;BME280;46897;55.340;86.082;2022-12-10T19:39:19;101757.31;;;-16.11;72.87
61010;BME280;46897;55.340;86.082;2022-12-10T19:41:50;101623.16;;;-16.77;72.74
61010;BME280;46897;55.340;86.082;2022-12-10T19:44:19;101684.53;;;-16.41;72.98
61010;BME280;46897;55.340;86.082;2022-12-10T19:46:48;101735.25;;;-16.12;72.51
61010;BME280;46897;55.340;86.082;2022-12-10T19:49:20;101684.69;;;-16.59;72.93
61010;BME280;46897;55.340;86.082;2022-12-10T19:51:49;101629.38;;;-16.73;72.59
61010;BME280;46897;55.340;86.082;2022-12-10T19:54:18;101728.38;;;-16.13;72.49
61010;BME280;46897;55.340;86.082;2022-12-10T19:56:47;101658.06;;;-16.64;72.74
61010;BME280;46897;55.340;86.082;2022-12-10T19:59:18;101649.69;;;-16.92;72.24
61010;BME280;46897;55.340;86.082;2022-12-10T20:01:47;101599.63;;;-17.05;72.54
61010;BME280;46897;55.340;86.082;2022-12-10T20:04:18;101777.25;;;-16.06;72.50
61010;BME280;46897;55.340;86.082;2022-12-10T20:06:48;101638.28;;;-17.16;72.92
61010;BME280;46897;55.340;86.082;2022-12-10T20:09:19;101664.16;;;-17.10;72.20
61010;BME280;46897;55.340;86.082;2022-12-10T20:11:50;101771.09;;;-16.47;72.38
61010;BME280;46897;55.340;86.082;2022-12-10T20:14:20;101600.72;;;-17.69;72.47